East Lynn, Illinois
Current Conditions -  °F | °C
As of 3:55 PM on Tuesday 25 Nov 2014 (Local Time) from KDNV Reporting Station
Overcast Overcast  
Wind Chill: 19°   Ceiling: 1700
Heat Index: 27°   Visibility: 10mi
Dew Point: 21°   Wind: 7mph
Humidity: 78%   Direction: 250°WSW
Pressure: 30.14"   Gusts: NA
Location:  40.47°N, 87.8°W
Report Text: KDNV 252155Z AUTO 25006KT 10SM OVC017 M03/M06 A3014 RMK AO2 T10301063
Loading
Personal Weather Stations






























Interactive Weather Map New forecast layout! Learn more

10-Day Weather Forecast

Advertisements
Track Severe Weather on mobile